createdAt,value
2019-02-20T00:01:43.698Z,18.62
2019-02-20T00:04:12.082Z,20.62
2019-02-20T00:06:40.476Z,16.30
2019-02-20T00:09:08.928Z,18.20
2019-02-20T00:11:37.340Z,18.40
2019-02-20T00:14:05.792Z,19.12
2019-02-20T00:16:34.187Z,19.07
2019-02-20T00:19:02.567Z,18.55
2019-02-20T00:21:30.953Z,20.95
2019-02-20T00:23:59.339Z,18.80
2019-02-20T00:26:27.730Z,19.62
2019-02-20T00:28:56.419Z,19.80
2019-02-20T00:31:24.813Z,21.42
2019-02-20T00:33:53.268Z,19.37
2019-02-20T00:36:21.659Z,20.92
2019-02-20T00:38:50.037Z,24.18
2019-02-20T00:41:18.434Z,26.00
2019-02-20T00:43:48.444Z,25.00
2019-02-20T00:46:21.171Z,24.07
2019-02-20T00:48:51.200Z,21.52
2019-02-20T00:51:36.494Z,22.95
2019-02-20T00:54:06.748Z,20.50
2019-02-20T00:56:35.125Z,21.97
2019-02-20T00:59:03.511Z,22.80
2019-02-20T01:01:31.887Z,27.65
2019-02-20T01:04:00.859Z,23.83
2019-02-20T01:06:29.236Z,24.40
2019-02-20T01:08:57.632Z,23.45
2019-02-20T01:11:26.185Z,23.12
2019-02-20T01:13:54.577Z,21.77
2019-02-20T01:16:22.971Z,22.93
2019-02-20T01:18:51.351Z,21.17
2019-02-20T01:21:19.739Z,21.70
2019-02-20T01:23:48.435Z,20.45
2019-02-20T01:26:16.821Z,22.62
2019-02-20T01:28:45.203Z,21.90
2019-02-20T01:31:13.591Z,23.25
2019-02-20T01:33:42.368Z,21.45
2019-02-20T01:36:10.752Z,21.97
2019-02-20T01:38:39.151Z,19.48
2019-02-20T01:41:07.523Z,22.02
2019-02-20T01:43:35.921Z,20.95
2019-02-20T01:46:04.444Z,23.52
2019-02-20T01:48:32.835Z,21.02
2019-02-20T01:51:01.218Z,20.57
2019-02-20T01:53:29.679Z,22.40
2019-02-20T01:55:58.064Z,21.73
2019-02-20T01:58:26.465Z,24.15
2019-02-20T02:00:54.846Z,25.10
2019-02-20T02:03:23.234Z,25.20
2019-02-20T02:05:51.617Z,17.37
2019-02-20T02:08:20.010Z,23.95
2019-02-20T02:10:48.385Z,21.60
2019-02-20T02:13:16.783Z,20.40
2019-02-20T04:01:00.458Z,21.62
2019-02-20T04:03:28.846Z,27.05
2019-02-20T04:05:57.239Z,30.02
2019-02-20T04:08:25.635Z,28.35
2019-02-20T04:10:54.021Z,26.20
2019-02-20T04:13:22.477Z,25.82
2019-02-20T04:15:51.157Z,29.92
2019-02-20T04:18:19.553Z,31.87
2019-02-20T04:20:47.936Z,34.15
2019-02-20T04:23:16.331Z,30.62
2019-02-20T04:25:44.715Z,30.97
2019-02-20T04:28:13.092Z,33.75
2019-02-20T04:30:41.543Z,41.00
2019-02-20T04:33:09.979Z,38.33
2019-02-20T04:35:38.395Z,35.70
2019-02-20T04:38:06.783Z,36.25
2019-02-20T04:40:35.172Z,37.38
2019-02-20T04:43:03.564Z,32.30
2019-02-20T04:45:31.952Z,38.48
2019-02-20T04:48:00.340Z,32.30
2019-02-20T04:50:28.716Z,30.05
2019-02-20T04:52:57.107Z,26.68
2019-02-20T04:55:25.510Z,30.97
2019-02-20T04:58:16.190Z,31.70
2019-02-20T05:00:44.573Z,29.55
2019-02-20T05:03:12.969Z,32.95
2019-02-20T05:05:41.487Z,30.37
2019-02-20T05:08:09.868Z,32.33
2019-02-20T05:10:38.253Z,29.87
2019-02-20T05:13:06.639Z,32.53
2019-02-20T05:15:35.028Z,34.50
2019-02-20T05:18:03.412Z,28.25
2019-02-20T05:20:31.789Z,23.92
2019-02-20T05:23:00.172Z,24.57
2019-02-20T05:25:28.569Z,28.40
2019-02-20T05:27:56.956Z,27.60
2019-02-20T05:30:25.344Z,25.40
2019-02-20T05:32:53.723Z,22.67
2019-02-20T05:35:22.113Z,22.58
2019-02-20T05:37:50.502Z,25.90
2019-02-20T05:40:18.894Z,24.60
2019-02-20T05:42:48.371Z,26.68
2019-02-20T05:45:16.954Z,25.57
2019-02-20T05:47:45.331Z,31.05
2019-02-20T05:50:13.717Z,29.02
2019-02-20T05:52:42.092Z,29.15
2019-02-20T05:55:10.556Z,31.00
2019-02-20T05:57:38.937Z,28.57
2019-02-20T06:00:10.680Z,28.80
2019-02-20T06:02:39.045Z,30.90
2019-02-20T06:05:07.591Z,30.10
2019-02-20T06:07:36.027Z,31.97
2019-02-20T06:10:06.252Z,31.70
2019-02-20T06:12:34.640Z,30.75
2019-02-20T06:15:03.102Z,28.00
2019-02-20T06:17:31.471Z,32.35
2019-02-20T06:20:00.306Z,30.40
2019-02-20T06:22:28.732Z,32.23
2019-02-20T06:24:57.205Z,32.45
2019-02-20T06:27:25.583Z,37.53
2019-02-20T06:29:53.981Z,31.55
2019-02-20T06:32:24.068Z,30.97
2019-02-20T06:34:52.477Z,32.85
2019-02-20T06:37:20.860Z,31.82
2019-02-20T06:39:49.261Z,31.15
2019-02-20T06:42:17.721Z,33.15
2019-02-20T06:44:46.111Z,32.20
2019-02-20T06:47:14.506Z,36.83
2019-02-20T06:49:42.894Z,33.92
2019-02-20T06:52:11.582Z,32.28
2019-02-20T06:54:39.983Z,32.88
2019-02-20T06:57:08.361Z,31.60
2019-02-20T06:59:36.739Z,28.92
2019-02-20T07:02:05.212Z,32.00
2019-02-20T07:04:33.591Z,31.15
2019-02-20T07:07:22.927Z,29.37
2019-02-20T07:10:16.740Z,27.25
2019-02-20T07:12:48.491Z,26.17
2019-02-20T07:15:25.796Z,25.05
2019-02-20T07:18:00.149Z,25.00
2019-02-20T07:20:58.767Z,26.00
2019-02-20T07:23:34.163Z,25.15
2019-02-20T07:26:17.627Z,24.75
2019-02-20T07:29:11.928Z,24.23
2019-02-20T07:31:40.329Z,23.92
2019-02-20T07:34:08.714Z,24.40
2019-02-20T07:36:37.103Z,25.43
2019-02-20T07:39:06.191Z,23.40
2019-02-20T07:41:34.583Z,21.37
2019-02-20T07:44:03.052Z,22.17
2019-02-20T07:46:31.436Z,20.72
2019-02-20T07:48:59.813Z,20.62
2019-02-20T07:51:28.241Z,19.52
2019-02-20T07:53:56.992Z,20.15
2019-02-20T07:56:25.383Z,21.17
2019-02-20T07:58:53.773Z,20.77
2019-02-20T08:01:22.159Z,24.63
2019-02-20T08:03:50.532Z,18.35
2019-02-20T08:06:18.921Z,17.73
2019-02-20T08:08:47.324Z,17.90
2019-02-20T08:11:15.697Z,18.73
2019-02-20T08:13:44.087Z,18.57
2019-02-20T08:16:12.468Z,16.57
2019-02-20T08:18:40.867Z,17.55
2019-02-20T08:21:09.255Z,16.82
2019-02-20T08:23:37.968Z,16.20
2019-02-20T08:26:06.346Z,16.60
2019-02-20T08:28:34.735Z,16.85
2019-02-20T08:31:03.120Z,17.00
2019-02-20T08:33:31.514Z,17.77
2019-02-20T08:35:59.899Z,17.32
2019-02-20T08:38:28.287Z,18.55
2019-02-20T08:40:56.670Z,17.12
2019-02-20T08:43:25.067Z,16.48
2019-02-20T08:45:53.795Z,16.45
2019-02-20T08:48:22.191Z,15.23
2019-02-20T08:50:50.580Z,15.28
2019-02-20T08:53:19.056Z,15.43
2019-02-20T08:55:47.489Z,14.93
2019-02-20T08:58:15.955Z,14.90
2019-02-20T09:00:44.359Z,14.38
2019-02-20T09:03:12.748Z,14.63
2019-02-20T09:05:41.139Z,14.18
2019-02-20T09:08:09.532Z,13.75
2019-02-20T09:10:37.925Z,14.18
2019-02-20T09:13:06.323Z,13.83
2019-02-20T09:15:34.979Z,15.43
2019-02-20T09:18:03.460Z,14.87
2019-02-20T09:20:31.835Z,15.30
2019-02-20T09:23:00.240Z,14.55
2019-02-20T09:25:28.632Z,16.55
2019-02-20T09:27:57.021Z,14.53
2019-02-20T09:30:28.493Z,15.13
2019-02-20T09:32:55.531Z,16.07
2019-02-20T09:35:23.948Z,16.25
2019-02-20T09:37:52.648Z,15.32
2019-02-20T09:40:21.065Z,15.88
2019-02-20T09:42:51.587Z,15.08
2019-02-20T09:47:47.832Z,15.50
2019-02-20T09:50:16.237Z,15.25
2019-02-20T09:52:51.986Z,14.75
2019-02-20T09:55:14.819Z,15.68
2019-02-20T09:57:43.225Z,15.45
2019-02-20T10:00:16.484Z,15.28
2019-02-20T10:02:44.865Z,15.75
2019-02-20T10:05:13.403Z,14.60
2019-02-20T10:07:41.822Z,15.28
2019-02-20T10:10:11.440Z,15.35
2019-02-20T10:12:39.827Z,14.20
2019-02-20T10:15:14.366Z,14.73
2019-02-20T10:17:42.753Z,15.32
2019-02-20T10:20:11.591Z,15.03
2019-02-20T10:22:40.051Z,14.68
2019-02-20T10:25:12.797Z,15.25
2019-02-20T10:27:41.259Z,14.87
2019-02-20T10:30:15.188Z,14.83
2019-02-20T10:32:43.583Z,14.38
2019-02-20T10:35:12.143Z,16.20
2019-02-20T10:37:40.537Z,14.58
2019-02-20T10:40:10.277Z,15.28
2019-02-20T10:42:38.663Z,16.42
2019-02-20T10:45:12.607Z,14.10
2019-02-20T10:47:40.987Z,15.00
2019-02-20T10:50:13.763Z,16.27
2019-02-20T10:52:42.459Z,15.95
2019-02-20T10:55:11.187Z,17.00
2019-02-20T10:57:39.651Z,16.10
2019-02-20T11:00:23.618Z,16.02
2019-02-20T11:02:44.887Z,16.95
2019-02-20T11:05:13.618Z,16.45
2019-02-20T11:07:42.083Z,15.85
2019-02-20T11:10:10.557Z,16.75
2019-02-20T11:12:38.952Z,15.75
2019-02-20T11:15:08.077Z,15.98
2019-02-20T11:17:37.195Z,16.17
2019-02-20T11:20:09.184Z,14.68
2019-02-20T11:22:37.583Z,13.80
2019-02-20T11:25:09.120Z,12.95
2019-02-20T11:27:39.448Z,14.40
2019-02-20T11:32:37.268Z,13.90
2019-02-20T11:35:07.188Z,14.60
2019-02-20T11:37:35.589Z,13.98
2019-02-20T11:40:05.325Z,13.68
2019-02-20T11:42:33.721Z,15.13
2019-02-20T11:45:02.115Z,12.88
2019-02-20T11:47:30.509Z,11.38
2019-02-20T11:49:58.891Z,12.68
2019-02-20T11:52:27.359Z,10.50
2019-02-20T11:54:57.149Z,10.08
2019-02-20T11:57:25.752Z,11.68
2019-02-20T11:59:54.131Z,12.28
2019-02-20T12:02:22.819Z,12.05
2019-02-20T12:04:51.204Z,13.13
2019-02-20T12:07:19.641Z,12.20
2019-02-20T12:09:48.032Z,10.72
2019-02-20T12:12:16.428Z,11.53
2019-02-20T12:14:44.815Z,11.73
2019-02-20T12:17:13.212Z,11.50
2019-02-20T12:19:41.609Z,10.82
2019-02-20T12:22:10.071Z,11.18
2019-02-20T12:24:38.460Z,11.48
2019-02-20T12:27:06.850Z,11.28
2019-02-20T12:29:35.236Z,11.12
2019-02-20T12:32:03.623Z,8.58
2019-02-20T12:34:32.022Z,7.90
2019-02-20T12:37:00.404Z,8.53
2019-02-20T12:39:28.819Z,10.25
2019-02-20T12:41:57.194Z,7.42
2019-02-20T12:44:25.892Z,6.60
2019-02-20T12:46:54.277Z,10.03
2019-02-20T12:49:22.741Z,9.33
2019-02-20T12:51:51.128Z,10.93
2019-02-20T12:54:19.518Z,11.97
2019-02-20T12:56:47.897Z,10.80
2019-02-20T12:59:16.299Z,11.40
2019-02-20T13:01:44.681Z,11.30
2019-02-20T13:04:13.080Z,10.90
2019-02-20T13:06:41.457Z,10.90
2019-02-20T13:09:11.556Z,9.85
2019-02-20T13:11:39.952Z,12.25
2019-02-20T13:14:08.609Z,11.68
2019-02-20T13:16:36.987Z,11.28
2019-02-20T13:19:05.386Z,11.15
2019-02-20T13:21:33.776Z,10.72
2019-02-20T13:24:02.181Z,10.72
2019-02-20T13:26:30.563Z,10.50
2019-02-20T13:28:58.955Z,11.88
2019-02-20T13:31:27.342Z,10.88
2019-02-20T13:33:55.743Z,10.58
2019-02-20T13:36:24.125Z,10.35
2019-02-20T13:38:52.526Z,12.10
2019-02-20T13:41:21.300Z,10.70
2019-02-20T13:43:49.700Z,9.38
2019-02-20T13:46:18.144Z,9.38
2019-02-20T13:48:46.532Z,8.70
2019-02-20T13:51:14.920Z,8.68
2019-02-20T13:53:46.462Z,9.18
2019-02-20T13:56:13.432Z,9.75
2019-02-20T13:58:41.832Z,9.93
2019-02-20T14:01:10.239Z,9.40
2019-02-20T14:03:38.625Z,9.93
2019-02-20T14:06:07.083Z,9.80
2019-02-20T14:08:35.468Z,10.75
2019-02-20T14:11:03.938Z,10.15
2019-02-20T14:13:32.325Z,9.58
2019-02-20T14:16:00.976Z,9.50
2019-02-20T14:18:29.369Z,10.20
2019-02-20T14:20:57.833Z,9.33
2019-02-20T14:23:26.220Z,9.38
2019-02-20T14:25:54.635Z,9.05
2019-02-20T14:28:23.396Z,9.35
2019-02-20T14:30:51.796Z,9.83
2019-02-20T14:33:20.180Z,9.70
2019-02-20T14:35:48.839Z,8.55
2019-02-20T14:38:17.228Z,8.15
2019-02-20T14:40:45.623Z,8.13
2019-02-20T14:43:14.004Z,8.38
2019-02-20T14:45:42.775Z,9.08
2019-02-20T14:48:11.156Z,8.78
2019-02-20T14:50:39.549Z,9.38
2019-02-20T14:53:08.001Z,8.03
2019-02-20T14:55:36.404Z,7.65
2019-02-20T14:58:04.784Z,7.95
2019-02-20T15:00:33.247Z,8.65
2019-02-20T15:03:02.008Z,8.95
2019-02-20T15:05:30.571Z,7.65
2019-02-20T15:07:59.076Z,7.53
2019-02-20T15:10:27.490Z,7.65
2019-02-20T15:12:55.859Z,7.25
2019-02-20T15:15:24.271Z,7.37
2019-02-20T15:17:52.659Z,6.58
2019-02-20T15:20:21.040Z,6.42
2019-02-20T15:22:49.439Z,7.12
2019-02-20T15:25:17.821Z,6.45
2019-02-20T15:27:46.239Z,4.78
2019-02-20T15:30:17.551Z,5.60
2019-02-20T15:32:45.959Z,6.90
2019-02-20T15:35:14.722Z,6.12
2019-02-20T15:37:43.109Z,7.55
2019-02-20T15:40:11.498Z,5.95
2019-02-20T15:42:39.890Z,5.80
2019-02-20T15:45:10.010Z,6.08
2019-02-20T15:47:38.474Z,6.30
2019-02-20T15:50:09.966Z,6.20
2019-02-20T15:52:39.730Z,6.15
2019-02-20T15:55:11.399Z,6.03
2019-02-20T15:57:39.924Z,5.72
2019-02-20T16:00:11.383Z,5.62
2019-02-20T16:02:39.785Z,6.33
2019-02-20T16:05:08.304Z,5.72
2019-02-20T16:07:36.698Z,6.33
2019-02-20T16:10:07.385Z,6.60
2019-02-20T16:12:35.853Z,7.00
2019-02-20T16:15:05.484Z,6.78
2019-02-20T16:17:33.878Z,6.80
2019-02-20T16:20:02.328Z,6.72
2019-02-20T16:22:31.174Z,8.40
2019-02-20T16:24:59.549Z,6.95
2019-02-20T16:27:27.944Z,7.40
2019-02-20T16:29:56.320Z,7.15
2019-02-20T16:32:24.712Z,7.55
2019-02-20T16:34:53.083Z,6.95
2019-02-20T16:37:21.777Z,6.70
2019-02-20T16:39:50.536Z,6.97
2019-02-20T16:42:18.927Z,7.30
2019-02-20T16:44:47.308Z,7.67
2019-02-20T16:47:15.716Z,7.55
2019-02-20T16:49:44.108Z,7.37
2019-02-20T16:52:12.503Z,8.43
2019-02-20T16:54:40.890Z,8.58
2019-02-20T16:57:10.076Z,9.20
2019-02-20T16:59:38.523Z,9.65
2019-02-20T17:02:08.060Z,14.28
2019-02-20T17:04:36.440Z,9.55
2019-02-20T17:07:04.833Z,8.25
2019-02-20T17:09:34.339Z,10.53
2019-02-20T17:12:03.319Z,7.60
2019-02-20T17:14:31.732Z,9.15
2019-02-20T17:17:00.111Z,8.43
2019-02-20T17:19:28.516Z,7.60
2019-02-20T17:21:56.891Z,7.47
2019-02-20T17:24:25.284Z,8.43
2019-02-20T17:26:53.677Z,9.10
2019-02-20T17:29:22.349Z,8.48
2019-02-20T17:31:50.722Z,8.13
2019-02-20T17:34:19.121Z,8.30
2019-02-20T17:36:47.503Z,8.03
2019-02-20T17:39:15.967Z,9.00
2019-02-20T17:41:44.349Z,9.50
2019-02-20T17:44:12.749Z,10.35
2019-02-20T17:46:41.135Z,12.73
2019-02-20T17:49:09.537Z,14.47
2019-02-20T17:51:37.933Z,12.93
2019-02-20T17:54:06.322Z,13.18
2019-02-20T17:56:34.704Z,11.05
2019-02-20T17:59:04.574Z,11.33
2019-02-20T18:01:32.955Z,11.38
2019-02-20T18:04:01.379Z,11.45
2019-02-20T18:06:29.765Z,10.55
2019-02-20T18:08:58.209Z,12.20
2019-02-20T18:11:26.575Z,10.88
2019-02-20T18:13:54.963Z,9.55
2019-02-20T18:16:23.354Z,10.05
2019-02-20T18:18:51.751Z,10.28
2019-02-20T18:21:20.136Z,7.87
2019-02-20T18:23:48.528Z,8.63
2019-02-20T18:26:16.948Z,10.43
2019-02-20T18:28:45.340Z,10.13
2019-02-20T18:31:13.753Z,11.20
2019-02-20T18:33:42.137Z,11.50
2019-02-20T18:36:11.592Z,10.75
2019-02-20T18:38:40.195Z,10.43
2019-02-20T18:41:08.728Z,10.20
2019-02-20T18:43:37.133Z,10.70
2019-02-20T18:46:05.701Z,10.55
2019-02-20T18:48:34.084Z,12.00
2019-02-20T18:51:02.490Z,11.80
2019-02-20T18:53:31.137Z,11.75
2019-02-20T18:55:59.535Z,11.65
2019-02-20T18:58:33.907Z,11.18
2019-02-20T19:00:58.139Z,11.50
2019-02-20T19:03:26.516Z,10.63
2019-02-20T19:05:54.911Z,11.12
2019-02-20T19:08:34.836Z,11.18
2019-02-20T19:11:08.781Z,10.72
2019-02-20T19:14:01.134Z,11.20
2019-02-20T19:16:49.024Z,11.20
2019-02-20T19:19:32.632Z,11.18
2019-02-20T19:22:27.879Z,11.10
2019-02-20T19:25:27.835Z,11.70
2019-02-20T19:28:01.821Z,9.90
2019-02-20T19:30:47.948Z,11.18
2019-02-20T19:33:34.180Z,11.15
2019-02-20T19:36:29.463Z,11.65
2019-02-20T19:39:35.499Z,11.38
2019-02-20T19:42:21.729Z,10.82
2019-02-20T19:45:15.363Z,11.85
2019-02-20T19:48:07.760Z,11.48
2019-02-20T19:50:47.593Z,11.20
2019-02-20T19:53:28.042Z,12.35
2019-02-20T19:56:17.630Z,11.68
2019-02-20T19:59:08.536Z,12.55
2019-02-20T20:01:48.464Z,12.90
2019-02-20T20:04:31.448Z,12.98
2019-02-20T20:07:19.600Z,12.03
2019-02-20T20:10:05.692Z,12.55
2019-02-20T20:13:01.076Z,12.23
2019-02-20T20:15:37.763Z,12.85
2019-02-20T20:18:27.140Z,12.95
2019-02-20T20:21:04.141Z,12.50
2019-02-20T20:23:44.103Z,13.45
2019-02-20T20:26:30.286Z,13.28
2019-02-20T20:29:06.245Z,12.82
2019-02-20T20:31:43.506Z,12.15
2019-02-20T20:34:17.538Z,13.20
2019-02-20T20:36:57.850Z,13.15
2019-02-20T20:39:36.491Z,13.75
2019-02-20T20:42:10.971Z,13.88
2019-02-20T20:44:42.424Z,14.18
2019-02-20T20:47:19.517Z,14.45
2019-02-20T20:50:14.456Z,12.37
2019-02-20T20:52:45.921Z,13.45
2019-02-20T20:55:43.016Z,17.67
2019-02-20T20:58:35.661Z,17.35
2019-02-20T21:01:07.124Z,17.65
2019-02-20T21:03:47.360Z,19.15
2019-02-20T21:06:36.227Z,18.30
2019-02-20T21:09:07.711Z,15.78
2019-02-20T21:11:55.777Z,17.62
2019-02-20T21:14:35.530Z,16.62
2019-02-20T21:17:12.966Z,16.30
2019-02-20T21:19:50.716Z,16.42
2019-02-20T21:22:37.301Z,15.85
2019-02-20T21:25:26.910Z,17.70
2019-02-20T21:28:14.689Z,18.70
2019-02-20T21:30:51.824Z,17.07
2019-02-20T21:33:50.106Z,16.77
2019-02-20T21:36:24.151Z,17.37
2019-02-20T21:39:04.483Z,17.82
2019-02-20T21:41:45.004Z,17.70
2019-02-20T21:44:22.316Z,18.23
2019-02-20T21:46:59.734Z,17.05
2019-02-20T21:49:36.935Z,17.75
2019-02-20T21:52:25.277Z,17.82
2019-02-20T21:55:14.763Z,18.00
2019-02-20T21:58:04.185Z,17.57
2019-02-20T22:00:41.280Z,17.37
2019-02-20T22:03:21.512Z,16.45
2019-02-20T22:05:58.238Z,16.55
2019-02-20T22:09:02.364Z,20.35
2019-02-20T22:11:42.508Z,18.80
2019-02-20T22:14:37.974Z,17.32
2019-02-20T22:17:27.552Z,21.00
2019-02-20T22:20:15.239Z,19.50
2019-02-20T22:22:58.404Z,19.95
2019-02-20T22:25:35.430Z,20.72
2019-02-20T22:28:12.977Z,20.43
2019-02-20T22:31:05.772Z,19.42
2019-02-20T22:33:56.795Z,19.12
2019-02-20T22:37:01.700Z,19.12
2019-02-20T22:39:36.124Z,18.05
2019-02-20T22:42:13.292Z,18.45
2019-02-20T22:45:01.538Z,18.35
2019-02-20T22:47:41.734Z,16.27
2019-02-20T22:50:27.507Z,18.80
2019-02-20T22:52:58.976Z,18.48
2019-02-20T22:55:48.288Z,18.50
2019-02-20T22:58:28.819Z,18.55
2019-02-20T23:01:21.147Z,19.65
2019-02-20T23:03:52.835Z,18.42
2019-02-20T23:06:36.479Z,19.60
2019-02-20T23:09:28.853Z,20.05
2019-02-20T23:12:11.467Z,19.57
2019-02-20T23:14:59.759Z,17.45
2019-02-20T23:17:28.623Z,18.60
2019-02-20T23:19:57.179Z,18.65
2019-02-20T23:22:25.847Z,18.65
2019-02-20T23:24:54.232Z,19.37
2019-02-20T23:27:22.671Z,19.27
2019-02-20T23:29:51.035Z,18.92
2019-02-20T23:32:19.435Z,21.30
2019-02-20T23:34:47.890Z,21.45
2019-02-20T23:37:16.287Z,20.23
2019-02-20T23:39:44.674Z,21.52
2019-02-20T23:42:13.070Z,22.30
2019-02-20T23:44:41.450Z,20.17
2019-02-20T23:47:09.840Z,20.62
2019-02-20T23:49:38.294Z,23.32
2019-02-20T23:52:06.702Z,23.60
2019-02-20T23:54:35.082Z,24.15
2019-02-20T23:57:03.555Z,23.85
2019-02-20T23:59:31.952Z,25.35
